Time;durP1;ratioP1;P1;durP2;ratioP2;P2;SDS_P1;SDS_P2;PMS_P1;PMS_P2;Temp;Humidity;BMP_temperature;BMP_pressure;BME280_temperature;BME280_humidity;BME280_pressure;Samples;Min_cycle;Max_cycle;Signal;HPM_P1;HPM_P2
2022/08/19 00:01:12;;;;;;;;;11.75;10.00;;;;;;;;5103533;27;61886;-76
2022/08/19 00:03:37;;;;;;;;;8.25;7.25;;;;;;;;5101789;27;61805;-76
2022/08/19 00:06:03;;;;;;;;;15.75;10.75;;;;;;;;5103182;27;61774;-76
2022/08/19 00:08:28;;;;;;;;;13.25;10.50;;;;;;;;5103060;27;61967;-75
2022/08/19 00:10:53;;;;;;;;;10.00;9.25;;;;;;;;5103520;27;61760;-75
2022/08/19 00:13:19;;;;;;;;;8.00;7.50;;;;;;;;5101717;27;62147;-76
2022/08/19 00:15:44;;;;;;;;;6.75;5.25;;;;;;;;5102864;27;61947;-75
2022/08/19 00:18:09;;;;;;;;;9.00;9.00;;;;;;;;5101764;27;61972;-75
2022/08/19 00:20:35;;;;;;;;;14.00;10.25;;;;;;;;5101582;27;61849;-76
2022/08/19 00:23:00;;;;;;;;;11.50;10.00;;;;;;;;5102290;27;62183;-76
2022/08/19 00:25:25;;;;;;;;;7.25;7.25;;;;;;;;5102820;27;61809;-76
2022/08/19 00:27:51;;;;;;;;;10.00;7.50;;;;;;;;5100556;27;61983;-76
2022/08/19 00:30:16;;;;;;;;;9.75;8.25;;;;;;;;5103091;27;61813;-75
2022/08/19 00:32:41;;;;;;;;;14.25;11.00;;;;;;;;5102228;27;62755;-76
2022/08/19 00:35:07;;;;;;;;;9.00;8.50;;;;;;;;5101486;27;61807;-75
2022/08/19 00:37:33;;;;;;;;;9.50;7.50;;;;;;;;5101441;27;62032;-75
2022/08/19 00:39:58;;;;;;;;;11.25;9.50;;;;;;;;5102361;27;61833;-75
2022/08/19 00:42:24;;;;;;;;;7.50;6.25;;;;;;;;5101407;27;61740;-76
2022/08/19 00:44:50;;;;;;;;;12.75;10.50;;;;;;;;5101116;27;62078;-75
2022/08/19 00:47:15;;;;;;;;;11.50;8.25;;;;;;;;5102705;27;61860;-76
2022/08/19 00:49:50;;;;;;;;;12.25;10.00;;;;;;;;5102220;27;62038;-75
2022/08/19 00:52:18;;;;;;;;;19.00;11.25;;;;;;;;5100743;27;63642;-76
2022/08/19 00:54:44;;;;;;;;;13.50;9.25;;;;;;;;5100395;27;62046;-75
2022/08/19 00:57:14;;;;;;;;;9.50;9.50;;;;;;;;5100854;27;61774;-75
2022/08/19 00:59:41;;;;;;;;;11.75;9.25;;;;;;;;5102146;27;61706;-76
2022/08/19 01:02:07;;;;;;;;;17.50;10.75;;;;;;;;5100462;27;62636;-76
2022/08/19 01:04:32;;;;;;;;;11.75;10.25;;;;;;;;5102183;27;61941;-75
2022/08/19 01:06:59;;;;;;;;;13.00;9.50;;;;;;;;5102477;27;61756;-75
2022/08/19 01:09:24;;;;;;;;;9.00;6.50;;;;;;;;5100789;27;61900;-75
2022/08/19 01:11:49;;;;;;;;;10.25;8.50;;;;;;;;5101442;27;61993;-76
2022/08/19 01:14:16;;;;;;;;;14.00;10.50;;;;;;;;5101543;27;61733;-75
2022/08/19 01:16:42;;;;;;;;;13.00;11.00;;;;;;;;5104177;27;61732;-75
2022/08/19 01:19:16;;;;;;;;;12.00;10.75;;;;;;;;5105918;27;61912;-76
2022/08/19 01:21:43;;;;;;;;;10.75;10.50;;;;;;;;5105044;27;61856;-76
2022/08/19 01:24:09;;;;;;;;;16.75;14.00;;;;;;;;5103257;27;61780;-76
2022/08/19 01:26:38;;;;;;;;;15.75;10.00;;;;;;;;5105420;27;61875;-75
2022/08/19 01:29:07;;;;;;;;;13.25;11.00;;;;;;;;5105462;27;62088;-75
2022/08/19 01:31:33;;;;;;;;;10.00;8.25;;;;;;;;5103324;27;63706;-76
2022/08/19 01:33:59;;;;;;;;;13.50;11.00;;;;;;;;5105400;27;62162;-75
2022/08/19 01:36:27;;;;;;;;;14.75;11.00;;;;;;;;5105902;27;61852;-76
2022/08/19 01:38:53;;;;;;;;;16.00;11.75;;;;;;;;5103272;27;62134;-75
2022/08/19 01:41:19;;;;;;;;;11.00;11.00;;;;;;;;5103083;27;63911;-76
2022/08/19 01:43:44;;;;;;;;;14.75;11.50;;;;;;;;5103466;27;62127;-75
2022/08/19 01:46:10;;;;;;;;;8.75;7.75;;;;;;;;5105262;27;61773;-75
2022/08/19 01:48:37;;;;;;;;;11.25;11.25;;;;;;;;5103684;27;62120;-76
2022/08/19 01:51:02;;;;;;;;;19.00;11.00;;;;;;;;5104794;27;62173;-75
2022/08/19 01:53:28;;;;;;;;;12.25;10.50;;;;;;;;5104092;27;61764;-75
2022/08/19 01:55:53;;;;;;;;;11.50;11.50;;;;;;;;5105305;27;62223;-75
2022/08/19 01:58:20;;;;;;;;;18.25;12.00;;;;;;;;5105168;27;62078;-75
2022/08/19 02:00:46;;;;;;;;;14.00;10.00;;;;;;;;5104058;27;61815;-76
2022/08/19 02:03:12;;;;;;;;;16.00;13.00;;;;;;;;5103702;27;61788;-76
2022/08/19 02:05:38;;;;;;;;;15.25;10.75;;;;;;;;5105047;27;61752;-76
2022/08/19 02:08:03;;;;;;;;;12.75;10.00;;;;;;;;5104652;27;61797;-75
2022/08/19 02:10:29;;;;;;;;;9.75;9.50;;;;;;;;5104130;27;63055;-76
2022/08/19 02:12:54;;;;;;;;;10.00;10.00;;;;;;;;5102966;27;61839;-75
2022/08/19 02:15:20;;;;;;;;;10.25;10.25;;;;;;;;5103689;27;61762;-76
2022/08/19 02:17:46;;;;;;;;;15.25;9.75;;;;;;;;5105070;27;61914;-75
2022/08/19 02:20:12;;;;;;;;;11.50;11.50;;;;;;;;5102840;27;63694;-76
2022/08/19 02:22:37;;;;;;;;;12.50;11.00;;;;;;;;5102645;27;62126;-75
2022/08/19 02:25:04;;;;;;;;;17.75;11.75;;;;;;;;5103896;27;61763;-75
2022/08/19 02:27:30;;;;;;;;;9.00;9.00;;;;;;;;5104814;27;62054;-76
2022/08/19 02:29:56;;;;;;;;;14.50;12.00;;;;;;;;5103611;27;61871;-75
2022/08/19 02:32:21;;;;;;;;;15.00;12.00;;;;;;;;5103000;27;61890;-75
2022/08/19 02:34:47;;;;;;;;;10.50;10.50;;;;;;;;5104333;27;61836;-76
2022/08/19 02:39:57;;;;;;;;;9.75;9.75;;;;;;;;5103477;27;61954;-76
2022/08/19 02:42:23;;;;;;;;;12.25;9.75;;;;;;;;5104047;27;61854;-75
2022/08/19 02:44:48;;;;;;;;;8.75;6.00;;;;;;;;5103757;27;61895;-75
2022/08/19 02:47:14;;;;;;;;;10.75;8.50;;;;;;;;5104713;27;62234;-76
2022/08/19 02:49:40;;;;;;;;;13.00;10.75;;;;;;;;5103714;27;61891;-75
2022/08/19 02:52:05;;;;;;;;;15.50;11.75;;;;;;;;5103642;27;61917;-76
2022/08/19 02:54:31;;;;;;;;;14.25;13.00;;;;;;;;5103647;27;61692;-76
2022/08/19 02:56:56;;;;;;;;;8.25;7.75;;;;;;;;5104372;27;61768;-76
2022/08/19 02:59:21;;;;;;;;;12.25;9.50;;;;;;;;5101576;27;63984;-76
2022/08/19 03:01:46;;;;;;;;;10.75;9.75;;;;;;;;5104103;27;61825;-75
2022/08/19 03:04:13;;;;;;;;;14.50;10.75;;;;;;;;5104083;27;61656;-75
2022/08/19 03:06:39;;;;;;;;;10.75;10.00;;;;;;;;5103773;27;61679;-76
2022/08/19 03:09:04;;;;;;;;;9.00;8.00;;;;;;;;5103025;27;63012;-76
2022/08/19 03:11:30;;;;;;;;;14.50;9.75;;;;;;;;5102493;27;61772;-76
2022/08/19 03:13:56;;;;;;;;;15.50;12.00;;;;;;;;5103369;27;61797;-75
2022/08/19 03:16:22;;;;;;;;;14.00;11.00;;;;;;;;5102611;27;61830;-76
2022/08/19 03:18:48;;;;;;;;;8.50;6.75;;;;;;;;5102949;27;61855;-75
2022/08/19 03:21:17;;;;;;;;;11.50;9.25;;;;;;;;5101990;27;61812;-76
2022/08/19 03:23:42;;;;;;;;;14.50;10.25;;;;;;;;5103195;27;61874;-75
2022/08/19 03:26:08;;;;;;;;;11.00;10.50;;;;;;;;5103846;27;62130;-76
2022/08/19 03:28:33;;;;;;;;;10.75;8.25;;;;;;;;5102870;27;62023;-75
2022/08/19 03:31:01;;;;;;;;;11.75;8.50;;;;;;;;5103439;27;61745;-75
2022/08/19 03:33:27;;;;;;;;;13.50;9.25;;;;;;;;5103733;27;61983;-76
2022/08/19 03:35:59;;;;;;;;;10.50;8.50;;;;;;;;5102930;27;61798;-76
2022/08/19 03:38:25;;;;;;;;;10.00;9.00;;;;;;;;5102337;27;61852;-76
2022/08/19 03:40:50;;;;;;;;;16.50;9.00;;;;;;;;5101502;27;61970;-76
2022/08/19 03:43:17;;;;;;;;;11.50;8.50;;;;;;;;5103089;27;61958;-76
2022/08/19 03:45:42;;;;;;;;;12.25;8.75;;;;;;;;5102579;27;61756;-76
2022/08/19 03:48:08;;;;;;;;;14.00;9.50;;;;;;;;5100969;27;63529;-76
2022/08/19 03:50:37;;;;;;;;;12.00;9.50;;;;;;;;5101612;27;62012;-75
2022/08/19 03:53:03;;;;;;;;;14.00;10.00;;;;;;;;5102913;27;61796;-76
2022/08/19 03:55:28;;;;;;;;;11.50;7.25;;;;;;;;5102092;27;62113;-76
2022/08/19 03:57:53;;;;;;;;;13.00;10.25;;;;;;;;5100666;27;63540;-76
2022/08/19 04:00:19;;;;;;;;;9.00;7.00;;;;;;;;5103211;27;61865;-76
2022/08/19 04:02:44;;;;;;;;;11.25;10.00;;;;;;;;5103201;27;61926;-75
2022/08/19 04:05:09;;;;;;;;;7.25;7.25;;;;;;;;5101499;27;61808;-76
2022/08/19 04:07:35;;;;;;;;;10.00;8.25;;;;;;;;5102584;27;61698;-76
2022/08/19 04:10:00;;;;;;;;;9.50;7.00;;;;;;;;5101452;27;61804;-75
2022/08/19 04:12:25;;;;;;;;;8.50;7.50;;;;;;;;5103345;27;61758;-76
2022/08/19 04:14:51;;;;;;;;;9.50;9.00;;;;;;;;5102898;27;61820;-75
2022/08/19 04:17:16;;;;;;;;;13.00;11.00;;;;;;;;5102410;27;62531;-75
2022/08/19 04:19:42;;;;;;;;;11.75;8.50;;;;;;;;5102389;27;61976;-75
2022/08/19 04:22:08;;;;;;;;;11.25;9.25;;;;;;;;5102979;27;61832;-76
2022/08/19 04:24:34;;;;;;;;;9.00;8.25;;;;;;;;5101386;27;61970;-75
2022/08/19 04:27:00;;;;;;;;;8.50;7.00;;;;;;;;5102236;27;63176;-75
2022/08/19 04:29:26;;;;;;;;;7.25;7.25;;;;;;;;5102485;27;61881;-76
2022/08/19 04:31:53;;;;;;;;;9.50;8.75;;;;;;;;5101464;27;61840;-76
2022/08/19 04:34:23;;;;;;;;;9.50;8.00;;;;;;;;5102406;27;61721;-75
2022/08/19 04:36:50;;;;;;;;;8.00;7.00;;;;;;;;5102372;27;62282;-75
2022/08/19 04:39:17;;;;;;;;;10.00;6.50;;;;;;;;5100749;27;62113;-75
2022/08/19 04:44:30;;;;;;;;;8.50;5.00;;;;;;;;5102460;27;61716;-76
2022/08/19 04:46:55;;;;;;;;;7.00;6.00;;;;;;;;5101749;27;62525;-76
2022/08/19 04:49:22;;;;;;;;;4.00;4.00;;;;;;;;5103619;27;61960;-75
2022/08/19 04:51:47;;;;;;;;;5.00;5.00;;;;;;;;5106540;27;61824;-75
2022/08/19 04:54:13;;;;;;;;;7.00;7.00;;;;;;;;5104259;27;61910;-76
2022/08/19 04:56:39;;;;;;;;;4.75;4.50;;;;;;;;5104204;27;64902;-75
2022/08/19 04:59:04;;;;;;;;;7.00;5.50;;;;;;;;5104171;27;61950;-75
2022/08/19 05:01:32;;;;;;;;;8.50;6.00;;;;;;;;5105749;27;61853;-75
2022/08/19 05:03:58;;;;;;;;;5.00;4.00;;;;;;;;5106207;27;61673;-78
2022/08/19 05:06:23;;;;;;;;;5.00;5.00;;;;;;;;5105338;27;61933;-76
2022/08/19 05:08:49;;;;;;;;;3.75;3.75;;;;;;;;5105766;27;62134;-76
2022/08/19 05:11:14;;;;;;;;;5.75;4.25;;;;;;;;5105887;27;62034;-74
2022/08/19 05:13:40;;;;;;;;;6.00;5.25;;;;;;;;5104343;27;62028;-75
2022/08/19 05:16:06;;;;;;;;;4.25;4.25;;;;;;;;5104543;27;62627;-75
2022/08/19 05:24:01;;;;;;;;;4.00;4.00;;;;;;;;5105020;27;61685;-74
2022/08/19 05:26:26;;;;;;;;;3.50;3.25;;;;;;;;5103746;27;63829;-75
2022/08/19 05:28:52;;;;;;;;;4.75;3.50;;;;;;;;5104198;27;62156;-75
2022/08/19 05:31:17;;;;;;;;;4.75;3.75;;;;;;;;5103377;27;62321;-75
2022/08/19 05:33:42;;;;;;;;;9.00;6.25;;;;;;;;5104075;27;62217;-78
2022/08/19 05:36:08;;;;;;;;;6.50;4.00;;;;;;;;5104386;27;62968;-78
2022/08/19 05:38:38;;;;;;;;;5.00;3.00;;;;;;;;5104748;27;62382;-77
2022/08/19 05:41:12;;;;;;;;;3.25;3.25;;;;;;;;5103562;27;61859;-77
2022/08/19 05:43:37;;;;;;;;;5.00;5.00;;;;;;;;5102075;27;61806;-77
2022/08/19 05:46:05;;;;;;;;;2.25;2.25;;;;;;;;5103735;27;61756;-77
2022/08/19 05:48:31;;;;;;;;;3.50;3.50;;;;;;;;5105010;27;61814;-78
2022/08/19 05:50:59;;;;;;;;;4.50;3.00;;;;;;;;5099935;27;62012;-77
2022/08/19 05:53:24;;;;;;;;;5.50;3.75;;;;;;;;5102161;27;61831;-77
2022/08/19 05:55:50;;;;;;;;;2.50;2.50;;;;;;;;5100327;27;63025;-78
2022/08/19 05:58:15;;;;;;;;;3.25;3.25;;;;;;;;5097873;27;61931;-77
2022/08/19 06:00:42;;;;;;;;;2.25;2.25;;;;;;;;5102444;27;62308;-77
2022/08/19 06:03:07;;;;;;;;;4.50;2.75;;;;;;;;5103040;27;61843;-77
2022/08/19 06:05:32;;;;;;;;;3.75;2.00;;;;;;;;5090734;27;63061;-78
2022/08/19 06:08:01;;;;;;;;;4.00;2.00;;;;;;;;5084229;28;61674;-78
2022/08/19 06:10:27;;;;;;;;;3.25;3.00;;;;;;;;5094519;27;61666;-77
2022/08/19 06:12:52;;;;;;;;;2.00;1.00;;;;;;;;5100722;27;62491;-77
2022/08/19 06:15:18;;;;;;;;;4.25;3.00;;;;;;;;5082628;27;63231;-77
2022/08/19 06:17:46;;;;;;;;;3.25;3.25;;;;;;;;5082858;28;62000;-77
2022/08/19 06:20:13;;;;;;;;;3.00;2.25;;;;;;;;5084184;27;61836;-77
2022/08/19 06:22:42;;;;;;;;;3.50;1.25;;;;;;;;5084480;27;61868;-78
2022/08/19 06:25:09;;;;;;;;;5.00;3.00;;;;;;;;5087244;27;64995;-76
2022/08/19 06:27:34;;;;;;;;;5.00;5.00;;;;;;;;5103869;27;61828;-76
2022/08/19 06:29:59;;;;;;;;;4.00;4.00;;;;;;;;5098661;27;62048;-76
2022/08/19 06:32:25;;;;;;;;;3.00;3.00;;;;;;;;5098386;27;61796;-76
2022/08/19 06:34:50;;;;;;;;;3.00;2.00;;;;;;;;5103415;27;61864;-76
2022/08/19 06:37:15;;;;;;;;;4.50;4.00;;;;;;;;5103996;27;61985;-76
2022/08/19 06:39:42;;;;;;;;;5.00;4.00;;;;;;;;5102681;27;61772;-76
2022/08/19 06:42:09;;;;;;;;;4.00;3.00;;;;;;;;5103870;27;61675;-76
2022/08/19 06:44:36;;;;;;;;;1.25;0.50;;;;;;;;5102189;27;62684;-76
2022/08/19 06:47:05;;;;;;;;;2.50;2.50;;;;;;;;5099570;27;61883;-76
2022/08/19 06:49:30;;;;;;;;;5.67;1.00;;;;;;;;5103934;27;61999;-76
2022/08/19 06:51:56;;;;;;;;;2.67;2.00;;;;;;;;5104355;27;62205;-76
2022/08/19 06:54:22;;;;;;;;;2.00;0.67;;;;;;;;5101325;27;63867;-76
2022/08/19 06:56:48;;;;;;;;;2.00;2.00;;;;;;;;5098651;27;62241;-76
2022/08/19 06:59:16;;;;;;;;;2.00;1.67;;;;;;;;5083005;28;61982;-76
2022/08/19 07:01:45;;;;;;;;;3.00;2.00;;;;;;;;5083928;28;61806;-74
2022/08/19 07:04:10;;;;;;;;;5.00;3.00;;;;;;;;5086166;27;61941;-77
2022/08/19 07:06:36;;;;;;;;;1.67;1.67;;;;;;;;5103682;27;61733;-77
2022/08/19 07:09:03;;;;;;;;;1.00;1.00;;;;;;;;5102173;27;61764;-77
2022/08/19 07:11:28;;;;;;;;;1.00;1.00;;;;;;;;5102768;27;62038;-77
2022/08/19 07:13:55;;;;;;;;;1.33;1.00;;;;;;;;5102337;27;62041;-77
2022/08/19 07:16:20;;;;;;;;;1.00;1.00;;;;;;;;5103844;27;61827;-77
2022/08/19 07:18:47;;;;;;;;;0.67;0.67;;;;;;;;5101639;27;61827;-77
2022/08/19 07:21:14;;;;;;;;;1.00;1.00;;;;;;;;5103572;27;61832;-77
2022/08/19 07:23:39;;;;;;;;;1.00;1.00;;;;;;;;5102478;27;62672;-77
2022/08/19 07:26:16;;;;;;;;;0.00;0.00;;;;;;;;5102335;27;61914;-77
2022/08/19 07:28:42;;;;;;;;;1.67;1.00;;;;;;;;5101976;27;62133;-77
2022/08/19 07:31:09;;;;;;;;;0.00;0.00;;;;;;;;5097478;27;62167;-76
2022/08/19 07:33:36;;;;;;;;;0.00;0.00;;;;;;;;5085589;27;62012;-76
2022/08/19 07:36:02;;;;;;;;;1.67;0.00;;;;;;;;5102700;27;61883;-76
2022/08/19 07:38:28;;;;;;;;;1.00;1.00;;;;;;;;5102754;27;61973;-76
2022/08/19 07:40:54;;;;;;;;;2.00;0.67;;;;;;;;5102565;27;62054;-76
2022/08/19 07:43:25;;;;;;;;;1.67;1.00;;;;;;;;5100477;27;63923;-76
2022/08/19 07:45:52;;;;;;;;;0.00;0.00;;;;;;;;5102880;27;61836;-76
2022/08/19 07:48:18;;;;;;;;;0.00;0.00;;;;;;;;5102827;27;61747;-76
2022/08/19 07:50:43;;;;;;;;;0.67;0.67;;;;;;;;5101359;27;61724;-76
2022/08/19 07:53:08;;;;;;;;;1.00;1.00;;;;;;;;5101819;27;61859;-76
2022/08/19 07:55:34;;;;;;;;;2.00;1.00;;;;;;;;5102170;27;61791;-76
2022/08/19 07:57:59;;;;;;;;;0.67;0.67;;;;;;;;5102041;27;61792;-76
2022/08/19 08:00:24;;;;;;;;;0.67;0.67;;;;;;;;5102449;27;62683;-76
2022/08/19 08:02:50;;;;;;;;;1.00;1.00;;;;;;;;5102132;27;61889;-76
2022/08/19 08:10:43;;;;;;;;;1.00;1.00;;;;;;;;5099244;27;61876;-76
2022/08/19 08:13:08;;;;;;;;;0.00;0.00;;;;;;;;5101411;27;61797;-76
2022/08/19 08:15:34;;;;;;;;;0.00;0.00;;;;;;;;5101119;27;61781;-76
2022/08/19 08:18:00;;;;;;;;;2.00;1.00;;;;;;;;5102544;27;61929;-76
2022/08/19 08:20:25;;;;;;;;;0.33;0.33;;;;;;;;5101345;27;62027;-76
2022/08/19 08:25:35;;;;;;;;;2.00;2.00;;;;;;;;5104373;27;61725;-76
2022/08/19 08:28:01;;;;;;;;;1.00;1.00;;;;;;;;5105729;27;61750;-76
2022/08/19 08:30:27;;;;;;;;;2.00;2.00;;;;;;;;5106227;27;61915;-76
2022/08/19 08:32:53;;;;;;;;;0.33;0.33;;;;;;;;5104158;27;63706;-77
2022/08/19 08:35:20;;;;;;;;;2.00;0.67;;;;;;;;5105383;27;62200;-77
2022/08/19 08:37:45;;;;;;;;;1.00;1.00;;;;;;;;5105956;27;61878;-77
2022/08/19 08:40:18;;;;;;;;;0.00;0.00;;;;;;;;5104490;27;63679;-77
2022/08/19 08:42:50;;;;;;;;;1.00;1.00;;;;;;;;5102133;27;63113;-78
2022/08/19 08:45:16;;;;;;;;;1.00;1.00;;;;;;;;5105609;27;61860;-78
2022/08/19 08:47:46;;;;;;;;;0.00;0.00;;;;;;;;5103865;27;62131;-77
2022/08/19 08:50:52;;;;;;;;;1.33;0.00;;;;;;;;5104316;27;62081;-77
2022/08/19 08:53:19;;;;;;;;;1.33;0.33;;;;;;;;5060626;28;62138;-77
2022/08/19 08:55:45;;;;;;;;;1.00;0.00;;;;;;;;5070478;28;62201;-78
2022/08/19 08:58:16;;;;;;;;;3.00;0.00;;;;;;;;5059133;28;61933;-78
2022/08/19 09:00:45;;;;;;;;;1.00;1.00;;;;;;;;5044664;28;62242;-77
2022/08/19 09:03:19;;;;;;;;;2.33;0.67;;;;;;;;5061463;28;61809;-79
2022/08/19 09:05:51;;;;;;;;;1.00;1.00;;;;;;;;5061367;28;61982;-77
2022/08/19 09:08:39;;;;;;;;;4.67;1.00;;;;;;;;5044699;28;62036;-77
2022/08/19 09:11:07;;;;;;;;;0.33;0.33;;;;;;;;5061903;28;61902;-77
2022/08/19 09:13:52;;;;;;;;;1.00;1.00;;;;;;;;5061140;28;61850;-77
2022/08/19 09:16:20;;;;;;;;;2.00;2.00;;;;;;;;5061832;28;61845;-77
2022/08/19 09:18:52;;;;;;;;;0.00;0.00;;;;;;;;5058988;28;61790;-77
2022/08/19 09:21:18;;;;;;;;;1.00;1.00;;;;;;;;5061706;28;61768;-77
2022/08/19 09:23:43;;;;;;;;;0.67;0.67;;;;;;;;5072980;27;62044;-77
2022/08/19 09:26:16;;;;;;;;;2.00;1.00;;;;;;;;5105065;27;62010;-77
2022/08/19 09:28:45;;;;;;;;;1.00;1.00;;;;;;;;5104532;27;61959;-77
2022/08/19 09:31:14;;;;;;;;;1.67;0.00;;;;;;;;5105027;27;61892;-77
2022/08/19 09:33:39;;;;;;;;;0.00;0.00;;;;;;;;5102569;27;63768;-77
2022/08/19 09:36:06;;;;;;;;;1.00;1.00;;;;;;;;5102368;27;61877;-77
2022/08/19 09:38:32;;;;;;;;;0.00;0.00;;;;;;;;5103331;27;61827;-78
2022/08/19 09:41:01;;;;;;;;;2.00;1.00;;;;;;;;5103238;27;62355;-78
2022/08/19 09:43:27;;;;;;;;;1.00;1.00;;;;;;;;5101243;27;63235;-78
2022/08/19 09:45:53;;;;;;;;;1.33;0.33;;;;;;;;5104541;27;61911;-77
2022/08/19 09:48:20;;;;;;;;;2.00;0.67;;;;;;;;5104992;27;62079;-77
2022/08/19 09:50:45;;;;;;;;;0.33;0.33;;;;;;;;5102182;27;62095;-77
2022/08/19 09:53:11;;;;;;;;;1.33;0.33;;;;;;;;5102957;27;62961;-77
2022/08/19 09:55:41;;;;;;;;;0.00;0.00;;;;;;;;5104561;27;61752;-77
2022/08/19 09:58:06;;;;;;;;;0.67;0.00;;;;;;;;5100098;27;61899;-76
2022/08/19 10:00:31;;;;;;;;;0.67;0.00;;;;;;;;5103314;27;61875;-77
2022/08/19 10:02:57;;;;;;;;;0.33;0.00;;;;;;;;5102345;27;64842;-77
2022/08/19 10:08:06;;;;;;;;;0.33;0.33;;;;;;;;5101619;27;62026;-77
2022/08/19 10:10:34;;;;;;;;;1.33;0.00;;;;;;;;5104551;27;61741;-77
2022/08/19 10:13:00;;;;;;;;;0.33;0.00;;;;;;;;5103634;27;61855;-78
2022/08/19 10:15:25;;;;;;;;;1.00;1.00;;;;;;;;5102254;27;61987;-76
2022/08/19 10:17:50;;;;;;;;;0.67;0.67;;;;;;;;5102755;27;62035;-76
2022/08/19 10:20:15;;;;;;;;;1.00;0.00;;;;;;;;5103968;27;62223;-76
2022/08/19 10:22:42;;;;;;;;;1.00;1.00;;;;;;;;5102239;27;63995;-76
2022/08/19 10:25:07;;;;;;;;;2.00;2.00;;;;;;;;5102094;27;61891;-76
2022/08/19 10:27:33;;;;;;;;;1.00;1.00;;;;;;;;5104117;27;61970;-76
2022/08/19 10:29:58;;;;;;;;;0.33;0.33;;;;;;;;5102332;27;62179;-76
2022/08/19 10:32:24;;;;;;;;;0.67;0.67;;;;;;;;5103484;27;62049;-76
2022/08/19 10:34:51;;;;;;;;;1.00;0.00;;;;;;;;5103151;27;61833;-76
2022/08/19 10:37:17;;;;;;;;;1.00;0.00;;;;;;;;5103841;27;61769;-76
2022/08/19 10:39:46;;;;;;;;;0.00;0.00;;;;;;;;5102708;27;62189;-76
2022/08/19 10:42:12;;;;;;;;;1.00;0.33;;;;;;;;5101622;27;63534;-76
2022/08/19 10:44:38;;;;;;;;;1.67;0.00;;;;;;;;5102095;27;61952;-77
2022/08/19 10:47:04;;;;;;;;;1.00;0.00;;;;;;;;5103419;27;61676;-76
2022/08/19 10:49:29;;;;;;;;;0.00;0.00;;;;;;;;5103706;27;61918;-76
2022/08/19 10:57:28;;;;;;;;;1.00;0.33;;;;;;;;5097016;27;61916;-77
2022/08/19 10:59:54;;;;;;;;;1.00;1.00;;;;;;;;5100064;27;61755;-77
2022/08/19 11:02:19;;;;;;;;;0.00;0.00;;;;;;;;5102883;27;62831;-78
2022/08/19 11:04:44;;;;;;;;;0.00;0.00;;;;;;;;5101773;27;61765;-78
2022/08/19 11:07:11;;;;;;;;;0.00;0.00;;;;;;;;5103827;27;61773;-77
2022/08/19 11:09:39;;;;;;;;;0.00;0.00;;;;;;;;5104017;27;62056;-77
2022/08/19 11:12:04;;;;;;;;;0.67;0.00;;;;;;;;5101609;27;64100;-76
2022/08/19 11:14:30;;;;;;;;;0.00;0.00;;;;;;;;5103514;27;61813;-77
2022/08/19 11:16:56;;;;;;;;;0.00;0.00;;;;;;;;5101838;27;61894;-77
2022/08/19 11:19:23;;;;;;;;;0.00;0.00;;;;;;;;5098992;27;62033;-77
2022/08/19 11:21:49;;;;;;;;;0.67;0.67;;;;;;;;5101093;27;63758;-78
2022/08/19 11:24:17;;;;;;;;;0.00;0.00;;;;;;;;5102572;27;61706;-77
2022/08/19 11:26:43;;;;;;;;;0.00;0.00;;;;;;;;5100535;27;61965;-77
2022/08/19 11:29:12;;;;;;;;;0.00;0.00;;;;;;;;5102986;27;61693;-77
2022/08/19 11:31:39;;;;;;;;;0.00;0.00;;;;;;;;5102603;27;62029;-77
2022/08/19 11:34:06;;;;;;;;;1.00;0.00;;;;;;;;5101183;27;61816;-77
2022/08/19 11:36:32;;;;;;;;;1.00;1.00;;;;;;;;5103714;27;61900;-76
2022/08/19 11:38:58;;;;;;;;;0.00;0.00;;;;;;;;5100824;27;61907;-78
2022/08/19 11:41:24;;;;;;;;;0.67;0.67;;;;;;;;5101045;27;63680;-79
2022/08/19 11:43:50;;;;;;;;;0.00;0.00;;;;;;;;5103185;27;61871;-80
2022/08/19 11:46:16;;;;;;;;;1.00;1.00;;;;;;;;5103546;27;61868;-92
2022/08/19 11:48:42;;;;;;;;;0.67;0.33;;;;;;;;5101829;27;62142;-88
2022/08/19 11:51:10;;;;;;;;;0.00;0.00;;;;;;;;5102151;27;61994;-85
2022/08/19 11:53:35;;;;;;;;;2.00;0.67;;;;;;;;5100920;27;61912;-84
2022/08/19 11:56:01;;;;;;;;;0.00;0.00;;;;;;;;5102538;27;61772;-85
2022/08/19 11:58:26;;;;;;;;;0.00;0.00;;;;;;;;5100086;27;61760;-85
2022/08/19 12:00:51;;;;;;;;;0.33;0.00;;;;;;;;5100597;27;63553;-85
2022/08/19 12:03:18;;;;;;;;;0.67;0.67;;;;;;;;5100982;27;62002;-85
2022/08/19 12:05:43;;;;;;;;;1.67;0.00;;;;;;;;5099957;27;62349;-85
2022/08/19 12:08:09;;;;;;;;;2.00;0.00;;;;;;;;5102697;27;61736;-85
2022/08/19 12:10:34;;;;;;;;;0.33;0.33;;;;;;;;5100695;27;63779;-85
2022/08/19 12:13:00;;;;;;;;;1.00;0.00;;;;;;;;5101956;27;61911;-85
2022/08/19 12:15:28;;;;;;;;;0.67;0.67;;;;;;;;5101323;27;63100;-85
2022/08/19 12:17:56;;;;;;;;;1.00;0.67;;;;;;;;5102508;27;61709;-85
2022/08/19 12:20:22;;;;;;;;;2.00;0.00;;;;;;;;5100035;27;63681;-85
2022/08/19 12:22:48;;;;;;;;;2.33;1.33;;;;;;;;5101484;27;61875;-85
2022/08/19 12:25:13;;;;;;;;;0.67;0.67;;;;;;;;5098069;27;61861;-86
2022/08/19 12:27:39;;;;;;;;;0.67;0.67;;;;;;;;5087614;27;62094;-84
2022/08/19 12:30:05;;;;;;;;;1.00;0.00;;;;;;;;5099965;27;65218;-85
2022/08/19 12:32:30;;;;;;;;;5.33;1.00;;;;;;;;5100473;27;61755;-85
2022/08/19 12:34:55;;;;;;;;;0.67;0.67;;;;;;;;5100778;27;61829;-85
2022/08/19 12:37:21;;;;;;;;;0.00;0.00;;;;;;;;5102427;27;61693;-85
2022/08/19 12:39:46;;;;;;;;;0.67;0.67;;;;;;;;5099281;27;63876;-85
2022/08/19 12:42:13;;;;;;;;;0.00;0.00;;;;;;;;5100479;27;61755;-85
2022/08/19 12:44:39;;;;;;;;;0.00;0.00;;;;;;;;5102324;27;62013;-85
2022/08/19 12:47:05;;;;;;;;;3.00;1.00;;;;;;;;5101711;27;62086;-85
2022/08/19 12:49:31;;;;;;;;;0.00;0.00;;;;;;;;5101367;27;62019;-85
2022/08/19 12:51:57;;;;;;;;;0.00;0.00;;;;;;;;5101895;27;61966;-85
2022/08/19 12:54:23;;;;;;;;;1.00;1.00;;;;;;;;5100018;27;61839;-85
2022/08/19 12:56:48;;;;;;;;;1.67;1.00;;;;;;;;5102333;27;61863;-85
2022/08/19 12:59:15;;;;;;;;;0.00;0.00;;;;;;;;5098185;27;62030;-85
2022/08/19 13:01:41;;;;;;;;;0.67;0.67;;;;;;;;5098909;27;61986;-84
2022/08/19 13:04:07;;;;;;;;;0.00;0.00;;;;;;;;5102050;27;61805;-85
2022/08/19 13:06:32;;;;;;;;;0.00;0.00;;;;;;;;5100785;27;61825;-85
2022/08/19 13:08:58;;;;;;;;;1.00;1.00;;;;;;;;5101847;27;62006;-85
2022/08/19 13:11:24;;;;;;;;;2.00;1.00;;;;;;;;5105437;27;62022;-85
2022/08/19 13:13:51;;;;;;;;;0.00;0.00;;;;;;;;5103617;27;62105;-85
2022/08/19 13:16:17;;;;;;;;;0.00;0.00;;;;;;;;5105239;27;61801;-85
2022/08/19 13:18:46;;;;;;;;;0.33;0.33;;;;;;;;5103901;27;63762;-85
2022/08/19 13:21:12;;;;;;;;;0.00;0.00;;;;;;;;5105429;27;61883;-85
2022/08/19 13:23:38;;;;;;;;;0.00;0.00;;;;;;;;5105358;27;61705;-85
2022/08/19 13:26:05;;;;;;;;;1.33;0.33;;;;;;;;5104594;27;61808;-85
2022/08/19 13:33:10;;;;;;;;;0.00;0.00;;;;;;;;5104374;27;61935;-85
2022/08/19 13:34:01;;;;;;;;;0.00;0.00;;;;;;;;5105361;27;61844;-85
2022/08/19 13:36:26;;;;;;;;;0.00;0.00;;;;;;;;5105568;27;62176;-84
2022/08/19 13:38:51;;;;;;;;;0.00;0.00;;;;;;;;5103082;27;64648;-84
2022/08/19 13:41:18;;;;;;;;;0.00;0.00;;;;;;;;5104858;27;61793;-85
2022/08/19 13:43:44;;;;;;;;;0.00;0.00;;;;;;;;5104925;27;61769;-85
2022/08/19 13:46:10;;;;;;;;;0.00;0.00;;;;;;;;5103635;27;62896;-85
2022/08/19 13:48:35;;;;;;;;;0.00;0.00;;;;;;;;5100023;27;63557;-84
2022/08/19 13:51:00;;;;;;;;;0.00;0.00;;;;;;;;5103265;27;61951;-84
2022/08/19 13:53:26;;;;;;;;;3.67;1.00;;;;;;;;5102725;27;62043;-83
2022/08/19 13:55:53;;;;;;;;;1.33;0.33;;;;;;;;5103474;27;61883;-84
2022/08/19 13:58:18;;;;;;;;;0.00;0.00;;;;;;;;5101445;27;62870;-84
2022/08/19 14:00:45;;;;;;;;;0.00;0.00;;;;;;;;5104154;27;61881;-84
2022/08/19 14:03:14;;;;;;;;;0.00;0.00;;;;;;;;5104901;27;61749;-85
2022/08/19 14:05:39;;;;;;;;;0.00;0.00;;;;;;;;5103318;27;61847;-84
2022/08/19 14:08:04;;;;;;;;;1.67;0.00;;;;;;;;5102286;27;64789;-84
2022/08/19 14:10:31;;;;;;;;;2.00;2.00;;;;;;;;5102811;27;61716;-84
2022/08/19 14:12:58;;;;;;;;;0.00;0.00;;;;;;;;5104388;27;62003;-84
2022/08/19 14:15:23;;;;;;;;;0.33;0.33;;;;;;;;5104272;27;61963;-84
2022/08/19 14:17:49;;;;;;;;;0.67;0.00;;;;;;;;5102126;27;63561;-84
2022/08/19 14:20:15;;;;;;;;;0.00;0.00;;;;;;;;5102769;27;61705;-84
2022/08/19 14:22:41;;;;;;;;;1.33;0.00;;;;;;;;5103832;27;61944;-84
2022/08/19 14:25:10;;;;;;;;;0.67;0.00;;;;;;;;5104252;27;61757;-84
2022/08/19 14:27:36;;;;;;;;;0.67;0.00;;;;;;;;5100350;27;63386;-84
2022/08/19 14:30:06;;;;;;;;;0.00;0.00;;;;;;;;5102595;27;61798;-84
2022/08/19 14:32:32;;;;;;;;;0.00;0.00;;;;;;;;5102309;27;61875;-84
2022/08/19 14:34:57;;;;;;;;;0.67;0.00;;;;;;;;5102752;27;61827;-84
2022/08/19 14:37:22;;;;;;;;;0.00;0.00;;;;;;;;5102001;27;63567;-84
2022/08/19 14:39:48;;;;;;;;;0.00;0.00;;;;;;;;5103694;27;62029;-84
2022/08/19 14:42:14;;;;;;;;;0.00;0.00;;;;;;;;5101933;27;61907;-84
2022/08/19 14:44:40;;;;;;;;;0.00;0.00;;;;;;;;5102511;27;62544;-85
2022/08/19 14:47:07;;;;;;;;;0.67;0.33;;;;;;;;5101824;27;64209;-84
2022/08/19 14:49:33;;;;;;;;;21.33;16.33;;;;;;;;5103585;27;61669;-84
2022/08/19 14:51:58;;;;;;;;;9.33;6.67;;;;;;;;5102249;27;61771;-84
2022/08/19 14:54:23;;;;;;;;;5.67;4.67;;;;;;;;5102092;27;61925;-84
2022/08/19 14:56:49;;;;;;;;;1.67;1.67;;;;;;;;5102569;27;61703;-84
2022/08/19 14:59:14;;;;;;;;;6.00;3.67;;;;;;;;5099916;27;61907;-84
2022/08/19 15:01:39;;;;;;;;;10.67;9.33;;;;;;;;5103292;27;61881;-84
2022/08/19 15:04:05;;;;;;;;;36.75;32.00;;;;;;;;5103768;27;61748;-84